Time;durP1;ratioP1;P1;durP2;ratioP2;P2;SDS_P1;SDS_P2;PMS_P1;PMS_P2;Temp;Humidity;BMP_temperature;BMP_pressure;BME280_temperature;BME280_humidity;BME280_pressure;Samples;Min_cycle;Max_cycle;Signal;HPM_P1;HPM_P2
2024/01/06 00:01:29;;;;;;;1999.90;999.90;;;5.40;99.90;;;;;;5020578;28;20056;-80
2024/01/06 00:03:55;;;;;;;1999.90;999.90;;;5.50;99.90;;;;;;5026035;28;20057;-82
2024/01/06 00:06:21;;;;;;;1999.90;999.90;;;5.60;99.90;;;;;;5021566;28;20081;-80
2024/01/06 00:08:53;;;;;;;1999.90;999.90;;;5.40;99.90;;;;;;5029985;28;20464;-82
2024/01/06 00:11:20;;;;;;;1999.90;999.90;;;5.50;99.90;;;;;;5027387;28;20064;-82
2024/01/06 00:13:45;;;;;;;1999.90;999.90;;;5.50;99.90;;;;;;5027757;28;20424;-80
2024/01/06 00:16:11;;;;;;;1999.90;999.90;;;5.50;99.90;;;;;;5028805;28;20116;-84
2024/01/06 00:18:37;;;;;;;1999.90;999.90;;;5.40;99.90;;;;;;5026420;28;20078;-83
2024/01/06 00:21:02;;;;;;;1999.90;999.90;;;5.30;99.90;;;;;;5026393;28;20029;-81
2024/01/06 00:23:28;;;;;;;1999.90;999.90;;;5.20;99.90;;;;;;5026426;28;20030;-79
2024/01/06 00:25:53;;;;;;;1999.90;999.90;;;5.30;99.90;;;;;;5026939;28;20782;-84
2024/01/06 00:28:19;;;;;;;1999.90;999.90;;;5.20;99.90;;;;;;5028169;28;20549;-79
2024/01/06 00:30:45;;;;;;;1999.90;999.90;;;5.20;99.90;;;;;;5023359;28;20033;-80
2024/01/06 00:33:11;;;;;;;1999.90;999.90;;;5.20;99.90;;;;;;5024616;28;20037;-81
2024/01/06 00:35:37;;;;;;;1999.90;999.90;;;5.30;99.90;;;;;;5026290;28;20400;-84
2024/01/06 00:38:03;;;;;;;1999.90;999.90;;;5.30;99.90;;;;;;5021312;28;20037;-79
2024/01/06 00:40:29;;;;;;;1999.90;999.90;;;5.40;99.90;;;;;;5027942;28;20045;-83
2024/01/06 00:42:54;;;;;;;1999.90;999.90;;;5.40;99.90;;;;;;5025348;28;20038;-82
2024/01/06 00:45:20;;;;;;;1999.90;999.90;;;5.30;99.90;;;;;;5027589;28;20041;-79
2024/01/06 00:47:46;;;;;;;1999.90;999.90;;;5.30;99.90;;;;;;5028930;28;20030;-84
2024/01/06 00:50:12;;;;;;;1999.90;999.90;;;5.40;99.90;;;;;;5025809;28;20766;-83
2024/01/06 00:52:38;;;;;;;1999.90;999.90;;;5.40;99.90;;;;;;5027679;28;20029;-84
2024/01/06 00:55:04;;;;;;;1999.90;999.90;;;5.30;99.90;;;;;;5030106;28;20033;-83
2024/01/06 00:57:29;;;;;;;1999.90;999.90;;;5.30;99.90;;;;;;5024391;28;20075;-79
2024/01/06 00:59:55;;;;;;;1999.90;999.90;;;5.20;99.90;;;;;;5061286;28;20029;-83
2024/01/06 01:02:21;;;;;;;1999.90;999.90;;;5.30;99.90;;;;;;5026137;28;20029;-83
2024/01/06 01:04:47;;;;;;;1999.90;999.90;;;5.10;99.90;;;;;;5025914;28;20038;-82
2024/01/06 01:07:13;;;;;;;1999.90;999.90;;;5.10;99.90;;;;;;5024342;28;20042;-81
2024/01/06 01:09:38;;;;;;;1999.90;999.90;;;5.10;99.90;;;;;;5024970;28;20040;-82
2024/01/06 01:12:04;;;;;;;1999.90;999.90;;;5.10;99.90;;;;;;5024996;28;20552;-82
2024/01/06 01:14:30;;;;;;;1999.90;999.90;;;5.20;99.90;;;;;;5029849;28;20049;-79
2024/01/06 01:16:55;;;;;;;1999.90;999.90;;;5.10;99.90;;;;;;5021731;28;20036;-80
2024/01/06 01:19:21;;;;;;;1999.90;999.90;;;5.20;99.90;;;;;;5025336;28;20037;-83
2024/01/06 01:21:47;;;;;;;1999.90;999.90;;;5.30;99.90;;;;;;5026700;28;20041;-79
2024/01/06 01:24:12;;;;;;;1999.90;999.90;;;5.30;99.90;;;;;;5025365;28;20052;-81
2024/01/06 01:26:38;;;;;;;1999.90;999.90;;;5.20;99.90;;;;;;5027566;28;20037;-82
2024/01/06 01:29:04;;;;;;;1999.90;999.90;;;5.20;99.90;;;;;;5027026;28;20040;-83
2024/01/06 01:31:29;;;;;;;1999.90;999.90;;;5.10;99.90;;;;;;5031007;28;20029;-79
2024/01/06 01:33:55;;;;;;;1999.90;999.90;;;5.10;99.90;;;;;;5030805;28;20034;-82
2024/01/06 01:36:21;;;;;;;1999.90;999.90;;;5.10;99.90;;;;;;5027787;28;20039;-79
2024/01/06 01:38:47;;;;;;;1999.90;999.90;;;5.00;99.90;;;;;;5028173;28;20041;-80
2024/01/06 01:41:12;;;;;;;1999.90;999.90;;;5.00;99.90;;;;;;5026112;28;20045;-81
2024/01/06 01:43:38;;;;;;;1999.90;999.90;;;4.90;99.90;;;;;;5029166;28;20041;-81
2024/01/06 01:46:04;;;;;;;1999.90;999.90;;;4.90;99.90;;;;;;5032166;28;20064;-83
2024/01/06 01:48:30;;;;;;;1999.90;999.90;;;4.90;99.90;;;;;;5031762;28;20065;-83
2024/01/06 01:50:56;;;;;;;1999.90;999.90;;;4.80;99.90;;;;;;5033429;28;20064;-80
2024/01/06 01:53:24;;;;;;;1999.90;999.90;;;4.70;99.90;;;;;;5027177;28;20057;-82
2024/01/06 01:55:50;;;;;;;1999.90;999.90;;;4.50;99.90;;;;;;5029281;28;20033;-79
2024/01/06 01:58:16;;;;;;;1999.90;999.90;;;4.60;99.90;;;;;;5035236;28;20044;-83
2024/01/06 02:00:42;;;;;;;1999.90;999.90;;;4.50;99.90;;;;;;5033316;28;20559;-84
2024/01/06 02:03:11;;;;;;;1999.90;999.90;;;4.50;99.90;;;;;;5031813;28;20542;-82
2024/01/06 02:05:39;;;;;;;1999.90;999.90;;;4.50;99.90;;;;;;5032136;28;20037;-82
2024/01/06 02:08:05;;;;;;;1999.90;999.90;;;4.40;99.90;;;;;;5029371;28;20034;-84
2024/01/06 02:10:31;;;;;;;1999.90;999.90;;;4.40;99.90;;;;;;5029232;28;20059;-82
2024/01/06 02:12:57;;;;;;;1999.90;999.90;;;4.30;99.90;;;;;;5028473;28;20056;-82
2024/01/06 02:15:22;;;;;;;1999.90;999.90;;;4.20;99.90;;;;;;5031587;28;20038;-82
2024/01/06 02:17:48;;;;;;;1999.90;999.90;;;4.10;99.90;;;;;;5034731;28;20025;-81
2024/01/06 02:20:16;;;;;;;1999.90;999.90;;;4.10;99.90;;;;;;5030548;28;20043;-82
2024/01/06 02:22:41;;;;;;;1999.90;999.90;;;4.30;99.90;;;;;;5025215;28;20414;-82
2024/01/06 02:25:12;;;;;;;1999.90;999.90;;;4.20;99.90;;;;;;5027685;28;20033;-83
2024/01/06 02:27:39;;;;;;;1999.90;999.90;;;4.20;99.90;;;;;;5027582;28;20741;-80
2024/01/06 02:30:06;;;;;;;1999.90;999.90;;;4.00;99.90;;;;;;5029409;28;20041;-82
2024/01/06 02:32:31;;;;;;;1999.90;999.90;;;4.20;99.90;;;;;;5024681;28;20446;-80
2024/01/06 02:34:57;;;;;;;1999.90;999.90;;;4.20;99.90;;;;;;5031466;28;20037;-82
2024/01/06 02:37:23;;;;;;;1999.90;999.90;;;4.20;99.90;;;;;;5030072;28;20037;-79
2024/01/06 02:39:48;;;;;;;1999.90;999.90;;;4.10;99.90;;;;;;5030113;28;20030;-84
2024/01/06 02:42:14;;;;;;;1999.90;999.90;;;4.00;99.90;;;;;;5026593;28;20041;-81
2024/01/06 02:44:39;;;;;;;1999.90;999.90;;;4.20;99.90;;;;;;5028577;28;20107;-80
2024/01/06 02:47:05;;;;;;;1999.90;999.90;;;4.10;99.90;;;;;;5028989;28;20028;-84
2024/01/06 02:49:31;;;;;;;1999.90;999.90;;;4.20;99.90;;;;;;5027236;28;20036;-85
2024/01/06 02:51:57;;;;;;;1999.90;999.90;;;4.20;99.90;;;;;;5025744;28;20029;-81
2024/01/06 02:54:22;;;;;;;1999.90;999.90;;;4.10;99.90;;;;;;5030932;28;20037;-83
2024/01/06 02:56:48;;;;;;;1999.90;999.90;;;4.20;99.90;;;;;;5027676;28;20030;-82
2024/01/06 02:59:13;;;;;;;1999.90;999.90;;;4.00;99.90;;;;;;5028145;28;20095;-83
2024/01/06 03:01:39;;;;;;;1999.90;999.90;;;4.10;99.90;;;;;;5026633;28;20053;-81
2024/01/06 03:04:05;;;;;;;1999.90;999.90;;;4.20;99.90;;;;;;5024671;28;20037;-84
2024/01/06 03:06:30;;;;;;;1999.90;999.90;;;4.10;99.90;;;;;;5030375;28;20057;-84
2024/01/06 03:08:56;;;;;;;1999.90;999.90;;;4.10;99.90;;;;;;5029741;28;20026;-83
2024/01/06 03:11:22;;;;;;;1999.90;999.90;;;4.00;99.90;;;;;;5029165;28;20400;-81
2024/01/06 03:13:48;;;;;;;1999.90;999.90;;;4.00;99.90;;;;;;5025986;28;20060;-82
2024/01/06 03:16:14;;;;;;;1999.90;999.90;;;4.00;99.90;;;;;;5029161;28;20129;-82
2024/01/06 03:18:39;;;;;;;1999.90;999.90;;;4.00;99.90;;;;;;5024949;28;20506;-83
2024/01/06 03:21:05;;;;;;;1999.90;999.90;;;4.20;99.90;;;;;;5031721;28;20041;-83
2024/01/06 03:23:30;;;;;;;1999.90;999.90;;;4.20;99.90;;;;;;5030251;28;20034;-82
2024/01/06 03:25:59;;;;;;;1999.90;999.90;;;4.30;99.90;;;;;;5030716;28;20537;-81
2024/01/06 03:28:25;;;;;;;1999.90;999.90;;;4.20;99.90;;;;;;5022467;28;20045;-83
2024/01/06 03:30:50;;;;;;;1999.90;999.90;;;4.30;99.90;;;;;;5026942;28;20399;-83
2024/01/06 03:33:16;;;;;;;1999.90;999.90;;;4.10;99.90;;;;;;5031768;28;20037;-82
2024/01/06 03:35:42;;;;;;;1999.90;999.90;;;4.20;99.90;;;;;;5025749;28;20080;-81
2024/01/06 03:38:07;;;;;;;1999.90;999.90;;;4.10;99.90;;;;;;5024072;28;20037;-83
2024/01/06 03:40:33;;;;;;;1999.90;999.90;;;4.10;99.90;;;;;;5023707;28;20659;-85
2024/01/06 03:43:00;;;;;;;1999.90;999.90;;;4.20;99.90;;;;;;5026193;28;20034;-82
2024/01/06 03:45:25;;;;;;;1999.90;999.90;;;4.30;99.90;;;;;;5030352;28;20087;-81
2024/01/06 03:47:51;;;;;;;1999.90;999.90;;;4.10;99.90;;;;;;5024973;28;20025;-83
2024/01/06 03:50:17;;;;;;;1999.90;999.90;;;4.00;99.90;;;;;;5030383;28;20041;-83
2024/01/06 03:52:42;;;;;;;1999.90;999.90;;;3.70;99.90;;;;;;5027700;28;20025;-82
2024/01/06 03:55:08;;;;;;;1999.90;999.90;;;3.80;99.90;;;;;;5026522;28;20107;-82
2024/01/06 03:57:34;;;;;;;1999.90;999.90;;;3.90;99.90;;;;;;5028385;28;20040;-84
2024/01/06 03:59:59;;;;;;;1999.90;999.90;;;3.80;99.90;;;;;;5025263;28;20579;-80
2024/01/06 04:02:25;;;;;;;1999.90;999.90;;;3.80;99.90;;;;;;5029510;28;20096;-84
2024/01/06 04:04:51;;;;;;;1999.90;999.90;;;3.80;99.90;;;;;;5026827;28;20720;-84
2024/01/06 04:07:16;;;;;;;1999.90;999.90;;;3.80;99.90;;;;;;5029866;28;20115;-84
2024/01/06 04:09:43;;;;;;;1999.90;999.90;;;3.80;99.90;;;;;;5027303;28;20029;-81
2024/01/06 04:12:09;;;;;;;1999.90;999.90;;;3.70;99.90;;;;;;5026738;28;20033;-81
2024/01/06 04:14:34;;;;;;;1999.90;999.90;;;3.80;99.90;;;;;;5025966;28;20034;-84
2024/01/06 04:17:00;;;;;;;1999.90;999.90;;;3.70;99.90;;;;;;5025375;28;20033;-85
2024/01/06 04:19:26;;;;;;;1999.90;999.90;;;3.60;99.90;;;;;;5031085;28;20047;-83
2024/01/06 04:21:51;;;;;;;1999.90;999.90;;;3.70;99.90;;;;;;5026746;28;20030;-81
2024/01/06 04:24:17;;;;;;;1999.90;999.90;;;3.70;99.90;;;;;;5026621;28;20065;-82
2024/01/06 04:26:44;;;;;;;1999.90;999.90;;;3.70;99.90;;;;;;5027146;28;20108;-85
2024/01/06 04:29:11;;;;;;;1999.90;999.90;;;3.60;99.90;;;;;;5029348;28;20044;-83
2024/01/06 04:31:37;;;;;;;1999.90;999.90;;;3.60;99.90;;;;;;5026442;28;20040;-83
2024/01/06 04:34:03;;;;;;;1999.90;999.90;;;3.60;99.90;;;;;;5022447;28;20449;-81
2024/01/06 04:36:28;;;;;;;1999.90;999.90;;;3.60;99.90;;;;;;5024489;28;20029;-81
2024/01/06 04:38:54;;;;;;;1999.90;999.90;;;3.80;99.90;;;;;;5027748;28;20752;-80
2024/01/06 04:41:20;;;;;;;1999.90;999.90;;;3.80;99.90;;;;;;5033751;28;20057;-84
2024/01/06 04:43:47;;;;;;;1999.90;999.90;;;3.70;99.90;;;;;;5028885;28;20480;-83
2024/01/06 04:46:13;;;;;;;1999.90;999.90;;;3.70;99.90;;;;;;5025837;28;20568;-83
2024/01/06 04:48:41;;;;;;;1999.90;999.90;;;3.70;99.90;;;;;;5026526;28;20034;-81
2024/01/06 04:51:09;;;;;;;1999.90;999.90;;;3.70;99.90;;;;;;5026571;28;20070;-82
2024/01/06 04:53:36;;;;;;;1999.90;999.90;;;3.70;99.90;;;;;;5023549;28;20033;-81
2024/01/06 04:56:02;;;;;;;1999.90;999.90;;;3.70;99.90;;;;;;5030835;28;20536;-81
2024/01/06 04:58:27;;;;;;;1999.90;999.90;;;3.60;99.90;;;;;;5027624;28;20115;-82
2024/01/06 05:00:56;;;;;;;1999.90;999.90;;;3.70;99.90;;;;;;5030226;28;20480;-82
2024/01/06 05:03:22;;;;;;;1999.90;999.90;;;3.90;99.90;;;;;;5024368;28;20044;-81
2024/01/06 05:05:47;;;;;;;1999.90;999.90;;;3.90;99.90;;;;;;5030768;28;20045;-82
2024/01/06 05:08:13;;;;;;;1999.90;999.90;;;4.00;99.90;;;;;;5029119;28;20028;-86
2024/01/06 05:10:39;;;;;;;1999.90;999.90;;;3.90;99.90;;;;;;5029381;28;20140;-84
2024/01/06 05:13:04;;;;;;;1999.90;999.90;;;3.90;99.90;;;;;;5029952;28;20049;-84
2024/01/06 05:15:31;;;;;;;1999.90;999.90;;;3.90;99.90;;;;;;5031851;28;20112;-79
2024/01/06 05:17:56;;;;;;;1999.90;999.90;;;4.00;99.90;;;;;;5029820;28;20076;-81
2024/01/06 05:20:23;;;;;;;1999.90;999.90;;;3.90;99.90;;;;;;5034583;28;20503;-77
2024/01/06 05:22:48;;;;;;;1999.90;999.90;;;4.00;99.90;;;;;;5028444;28;20044;-70
2024/01/06 05:25:14;;;;;;;1999.90;999.90;;;3.90;99.90;;;;;;5029979;28;20038;-75
2024/01/06 05:27:40;;;;;;;1999.90;999.90;;;3.80;99.90;;;;;;5031298;28;20038;-80
2024/01/06 05:30:06;;;;;;;1999.90;999.90;;;3.80;99.90;;;;;;5028206;28;20041;-82
2024/01/06 05:32:31;;;;;;;1999.90;999.90;;;3.80;99.90;;;;;;5029306;28;20030;-80
2024/01/06 05:34:57;;;;;;;1999.90;999.90;;;3.90;99.90;;;;;;5027836;28;20037;-84
2024/01/06 05:37:23;;;;;;;1999.90;999.90;;;3.80;99.90;;;;;;5031875;28;20549;-80
2024/01/06 05:39:48;;;;;;;1999.90;999.90;;;3.80;99.90;;;;;;5029721;28;20091;-83
2024/01/06 05:42:17;;;;;;;1999.90;999.90;;;3.90;99.90;;;;;;5032148;28;20032;-82
2024/01/06 05:44:42;;;;;;;1999.90;999.90;;;4.00;99.90;;;;;;5029576;28;20033;-84
2024/01/06 05:47:08;;;;;;;1999.90;999.90;;;4.10;99.90;;;;;;5029030;28;20385;-81
2024/01/06 05:49:34;;;;;;;1999.90;999.90;;;4.20;99.90;;;;;;5025723;28;20033;-84
2024/01/06 05:52:00;;;;;;;1999.90;999.90;;;4.20;99.90;;;;;;5031749;28;20071;-83
2024/01/06 05:54:25;;;;;;;1999.90;999.90;;;4.00;99.90;;;;;;5029678;28;20042;-82
2024/01/06 05:56:51;;;;;;;1999.90;999.90;;;4.00;99.90;;;;;;5028706;28;20036;-84
2024/01/06 05:59:17;;;;;;;1999.90;999.90;;;4.00;99.90;;;;;;5029127;28;20117;-83
2024/01/06 06:01:43;;;;;;;1999.90;999.90;;;3.80;99.90;;;;;;5034947;28;20033;-82
2024/01/06 06:04:10;;;;;;;1999.90;999.90;;;3.90;99.90;;;;;;5027165;28;20029;-84
2024/01/06 06:06:37;;;;;;;1999.90;999.90;;;3.90;99.90;;;;;;5034777;28;20511;-81
2024/01/06 06:09:06;;;;;;;1999.90;999.90;;;4.00;99.90;;;;;;5030615;28;20487;-81
2024/01/06 06:11:33;;;;;;;1999.90;999.90;;;4.00;99.90;;;;;;5027797;28;20535;-81
2024/01/06 06:13:58;;;;;;;1999.90;999.90;;;4.00;99.90;;;;;;5032401;28;20040;-83
2024/01/06 06:16:24;;;;;;;1999.90;999.90;;;4.10;99.90;;;;;;5027723;28;20112;-80
2024/01/06 06:18:50;;;;;;;1999.90;999.90;;;4.10;99.90;;;;;;5028893;28;20404;-81
2024/01/06 06:21:15;;;;;;;1999.90;999.90;;;4.10;99.90;;;;;;5033720;28;20072;-84
2024/01/06 06:23:41;;;;;;;1999.90;999.90;;;4.10;99.90;;;;;;5031451;28;20099;-83
2024/01/06 06:26:07;;;;;;;1999.90;999.90;;;4.10;99.90;;;;;;5032233;28;20483;-82
2024/01/06 06:28:34;;;;;;;1999.90;999.90;;;3.90;99.90;;;;;;5030855;28;20432;-84
2024/01/06 06:31:01;;;;;;;1999.90;999.90;;;3.80;99.90;;;;;;5028827;28;20539;-82
2024/01/06 06:33:27;;;;;;;1999.90;999.90;;;4.00;99.90;;;;;;5035602;28;20675;-84
2024/01/06 06:35:52;;;;;;;1999.90;999.90;;;3.90;99.90;;;;;;5031534;28;20116;-85
2024/01/06 06:38:18;;;;;;;1999.90;999.90;;;4.00;99.90;;;;;;5029698;28;20083;-81
2024/01/06 06:40:43;;;;;;;1999.90;999.90;;;4.00;99.90;;;;;;5026802;28;20033;-84
2024/01/06 06:43:09;;;;;;;1999.90;999.90;;;4.00;99.90;;;;;;5028230;28;20038;-82
2024/01/06 06:45:35;;;;;;;1999.90;999.90;;;4.00;99.90;;;;;;5030131;28;20418;-82
2024/01/06 06:48:01;;;;;;;1999.90;999.90;;;4.00;99.90;;;;;;5034392;28;20057;-81
2024/01/06 06:50:26;;;;;;;1999.90;999.90;;;4.00;99.90;;;;;;5026647;28;20482;-83
2024/01/06 06:52:52;;;;;;;1999.90;999.90;;;4.00;99.90;;;;;;5030281;28;20041;-84
2024/01/06 06:55:18;;;;;;;1999.90;999.90;;;3.90;99.90;;;;;;5026235;28;20064;-81
2024/01/06 06:57:44;;;;;;;1999.90;999.90;;;3.80;99.90;;;;;;5031995;28;20020;-82
2024/01/06 07:00:10;;;;;;;1999.90;999.90;;;3.60;99.90;;;;;;5028721;28;20061;-79
2024/01/06 07:02:36;;;;;;;1999.90;999.90;;;3.70;99.90;;;;;;5029455;28;20041;-82
2024/01/06 07:05:02;;;;;;;1999.90;999.90;;;3.80;99.90;;;;;;5031406;28;20049;-83
2024/01/06 07:07:28;;;;;;;1999.90;999.90;;;3.90;99.90;;;;;;5033566;28;20041;-83
2024/01/06 07:09:54;;;;;;;1999.90;999.90;;;4.10;99.90;;;;;;5029273;28;20030;-82
2024/01/06 07:12:19;;;;;;;1999.90;999.90;;;4.20;99.90;;;;;;5028123;28;20060;-82
2024/01/06 07:14:45;;;;;;;1999.90;999.90;;;4.00;99.90;;;;;;5027554;28;20406;-82
2024/01/06 07:17:10;;;;;;;1999.90;999.90;;;4.30;99.90;;;;;;5025481;28;20472;-82
2024/01/06 07:19:38;;;;;;;1999.90;999.90;;;4.20;99.90;;;;;;5027848;28;20457;-82
2024/01/06 07:22:05;;;;;;;1999.90;999.90;;;4.40;99.90;;;;;;5033826;28;20030;-81
2024/01/06 07:24:30;;;;;;;1999.90;999.90;;;4.30;99.90;;;;;;5029796;28;20084;-80
2024/01/06 07:26:56;;;;;;;1999.90;999.90;;;4.30;99.90;;;;;;5025142;28;20710;-80
2024/01/06 07:29:22;;;;;;;1999.90;999.90;;;4.20;99.90;;;;;;5021390;28;20092;-82
2024/01/06 07:31:47;;;;;;;1999.90;999.90;;;4.20;99.90;;;;;;5024380;28;20479;-82
2024/01/06 07:34:13;;;;;;;1999.90;999.90;;;4.30;99.90;;;;;;5024292;28;20064;-85
2024/01/06 07:36:39;;;;;;;1999.90;999.90;;;4.30;99.90;;;;;;5030807;28;20539;-83
2024/01/06 07:39:05;;;;;;;1999.90;999.90;;;4.30;99.90;;;;;;5027764;28;20034;-82
2024/01/06 07:41:32;;;;;;;1999.90;999.90;;;4.10;99.90;;;;;;5024554;28;20038;-81
2024/01/06 07:43:58;;;;;;;1999.90;999.90;;;4.10;99.90;;;;;;5025642;28;20033;-81
2024/01/06 07:46:24;;;;;;;1999.90;999.90;;;4.20;99.90;;;;;;5026521;28;20658;-83
2024/01/06 07:48:49;;;;;;;1999.90;999.90;;;4.10;99.90;;;;;;5025674;28;20517;-81
2024/01/06 07:51:15;;;;;;;1999.90;999.90;;;4.10;99.90;;;;;;5024111;28;20129;-84
2024/01/06 07:53:42;;;;;;;1999.90;999.90;;;4.20;99.90;;;;;;5023704;28;20401;-81
2024/01/06 07:56:08;;;;;;;1999.90;999.90;;;4.30;99.90;;;;;;5024383;28;20112;-81
2024/01/06 07:58:34;;;;;;;1999.90;999.90;;;4.20;99.90;;;;;;5026529;28;20038;-84
2024/01/06 08:00:59;;;;;;;1999.90;999.90;;;4.20;99.90;;;;;;5028532;28;20040;-83
2024/01/06 08:03:25;;;;;;;1999.90;999.90;;;4.30;99.90;;;;;;5028460;28;20040;-82
2024/01/06 08:05:50;;;;;;;1999.90;999.90;;;4.30;99.90;;;;;;5026378;28;20647;-82
2024/01/06 08:08:16;;;;;;;1999.90;999.90;;;4.30;99.90;;;;;;5022481;28;20538;-82
2024/01/06 08:10:42;;;;;;;1999.90;999.90;;;4.50;99.90;;;;;;5026815;28;20037;-81
2024/01/06 08:13:08;;;;;;;1999.90;999.90;;;4.20;99.90;;;;;;5026848;28;20029;-81
2024/01/06 08:15:34;;;;;;;1999.90;999.90;;;4.30;99.90;;;;;;5026686;28;20026;-81
2024/01/06 08:17:59;;;;;;;1999.90;999.90;;;4.30;99.90;;;;;;5026802;28;20033;-84
2024/01/06 08:20:25;;;;;;;1999.90;999.90;;;4.20;99.90;;;;;;5025765;28;20072;-83
2024/01/06 08:22:51;;;;;;;1999.90;999.90;;;4.20;99.90;;;;;;5028888;28;20084;-79
2024/01/06 08:25:17;;;;;;;1999.90;999.90;;;4.20;99.90;;;;;;5024635;28;20800;-82
2024/01/06 08:27:43;;;;;;;1999.90;999.90;;;4.10;99.90;;;;;;5028297;28;20061;-79
2024/01/06 08:30:10;;;;;;;1999.90;999.90;;;4.10;99.90;;;;;;5025208;28;20041;-81
2024/01/06 08:32:36;;;;;;;1999.90;999.90;;;4.10;99.90;;;;;;5028765;28;20030;-80
2024/01/06 08:35:02;;;;;;;1999.90;999.90;;;4.10;99.90;;;;;;5036403;28;20029;-82
2024/01/06 08:37:27;;;;;;;1999.90;999.90;;;4.00;99.90;;;;;;5026453;28;20094;-82
2024/01/06 08:39:53;;;;;;;1999.90;999.90;;;4.20;99.90;;;;;;5024501;28;20616;-84
2024/01/06 08:42:19;;;;;;;1999.90;999.90;;;4.10;99.90;;;;;;5026757;28;21056;-82
2024/01/06 08:44:44;;;;;;;1999.90;999.90;;;4.20;99.90;;;;;;5026797;28;20064;-81
2024/01/06 08:47:10;;;;;;;1999.90;999.90;;;4.20;99.90;;;;;;5022956;28;20038;-82
2024/01/06 08:49:36;;;;;;;1999.90;999.90;;;4.10;99.90;;;;;;5025396;28;20038;-81
2024/01/06 08:52:01;;;;;;;1999.90;999.90;;;4.30;99.90;;;;;;5027655;28;20424;-79
2024/01/06 08:54:27;;;;;;;1999.90;999.90;;;4.20;99.90;;;;;;5024832;28;20041;-83
2024/01/06 08:56:53;;;;;;;1999.90;999.90;;;4.10;99.90;;;;;;5023958;28;20441;-79
2024/01/06 08:59:20;;;;;;;1999.90;999.90;;;4.00;99.90;;;;;;5025929;28;20042;-81
2024/01/06 09:01:45;;;;;;;1999.90;999.90;;;4.10;99.90;;;;;;5026376;28;20048;-81
2024/01/06 09:04:12;;;;;;;1999.90;999.90;;;4.10;99.90;;;;;;5023231;28;20034;-82
2024/01/06 09:06:38;;;;;;;1999.90;999.90;;;4.10;99.90;;;;;;5022994;28;20056;-82
2024/01/06 09:09:05;;;;;;;1999.90;999.90;;;4.10;99.90;;;;;;5025096;28;20026;-80
2024/01/06 09:11:30;;;;;;;1999.90;999.90;;;4.10;99.90;;;;;;5024151;28;20026;-83
2024/01/06 09:13:56;;;;;;;1999.90;999.90;;;4.00;99.90;;;;;;5027861;28;20435;-82
2024/01/06 09:16:22;;;;;;;1999.90;999.90;;;4.00;99.90;;;;;;5025034;28;20033;-80
2024/01/06 09:18:49;;;;;;;1999.90;999.90;;;4.10;99.90;;;;;;5025323;28;20131;-84
2024/01/06 09:21:15;;;;;;;1999.90;999.90;;;4.00;99.90;;;;;;5024729;28;20030;-79
2024/01/06 09:23:40;;;;;;;1999.90;999.90;;;4.10;99.90;;;;;;5025279;28;20048;-86
2024/01/06 09:26:06;;;;;;;1999.90;999.90;;;4.10;99.90;;;;;;5021979;28;20549;-81
2024/01/06 09:28:32;;;;;;;1999.90;999.90;;;4.00;99.90;;;;;;5026163;28;20035;-81
2024/01/06 09:30:57;;;;;;;1999.90;999.90;;;4.10;99.90;;;;;;5025202;28;20075;-80
2024/01/06 09:33:23;;;;;;;1999.90;999.90;;;4.00;99.90;;;;;;5029883;28;20072;-85
2024/01/06 09:35:49;;;;;;;1999.90;999.90;;;4.10;99.90;;;;;;5029397;28;20071;-81
2024/01/06 09:38:14;;;;;;;1999.90;999.90;;;4.10;99.90;;;;;;5027530;28;20104;-82
2024/01/06 09:40:44;;;;;;;1999.90;999.90;;;4.10;99.90;;;;;;5025693;28;20503;-85
2024/01/06 09:43:13;;;;;;;1999.90;999.90;;;4.00;99.90;;;;;;5022969;28;20037;-81
2024/01/06 09:45:41;;;;;;;1999.90;999.90;;;3.80;99.90;;;;;;5021043;28;20099;-80
2024/01/06 09:48:12;;;;;;;1999.90;999.90;;;3.70;99.90;;;;;;5022272;28;20117;-81
2024/01/06 09:50:44;;;;;;;1999.90;999.90;;;3.70;99.90;;;;;;5026197;28;20041;-81
2024/01/06 09:53:11;;;;;;;1999.90;999.90;;;3.60;99.90;;;;;;5025163;28;20032;-81
2024/01/06 09:55:38;;;;;;;1999.90;999.90;;;3.60;99.90;;;;;;5031754;28;20044;-83
2024/01/06 09:58:06;;;;;;;1999.90;999.90;;;3.70;99.90;;;;;;5031585;28;20596;-82
2024/01/06 10:00:33;;;;;;;1999.90;999.90;;;3.60;99.90;;;;;;5025489;28;20315;-82
2024/01/06 10:02:59;;;;;;;1999.90;999.90;;;3.60;99.90;;;;;;5028925;28;20054;-81
2024/01/06 10:05:24;;;;;;;1999.90;999.90;;;3.60;99.90;;;;;;5025899;28;20063;-80
2024/01/06 10:07:50;;;;;;;1999.90;999.90;;;3.50;99.90;;;;;;5030305;28;20033;-80
2024/01/06 10:10:16;;;;;;;1999.90;999.90;;;3.50;99.90;;;;;;5022967;28;20081;-82
2024/01/06 10:12:42;;;;;;;1999.90;999.90;;;3.50;99.90;;;;;;5028205;28;20037;-84
2024/01/06 10:15:10;;;;;;;1999.90;999.90;;;3.40;99.90;;;;;;5028311;28;20029;-84
2024/01/06 10:17:40;;;;;;;1999.90;999.90;;;3.60;99.90;;;;;;5028623;28;20060;-79
2024/01/06 10:20:13;;;;;;;1999.90;999.90;;;3.70;99.90;;;;;;5028439;28;20120;-80
2024/01/06 10:22:41;;;;;;;1999.90;999.90;;;3.60;99.90;;;;;;5024714;28;20037;-80
2024/01/06 10:25:09;;;;;;;1999.90;999.90;;;3.60;99.90;;;;;;5026382;28;20435;-84
2024/01/06 10:27:35;;;;;;;1999.90;999.90;;;3.60;99.90;;;;;;5024566;28;20484;-80
2024/01/06 10:30:01;;;;;;;1999.90;999.90;;;3.60;99.90;;;;;;5024536;28;20047;-84
2024/01/06 10:32:30;;;;;;;1999.90;999.90;;;3.70;99.90;;;;;;5026071;28;20038;-82
2024/01/06 10:34:56;;;;;;;1999.90;999.90;;;3.80;99.90;;;;;;5025364;28;20116;-82
2024/01/06 10:37:21;;;;;;;1999.90;999.90;;;3.80;99.90;;;;;;5026286;28;20472;-84
2024/01/06 10:39:47;;;;;;;1999.90;999.90;;;3.80;99.90;;;;;;5026450;28;20125;-82
2024/01/06 10:42:14;;;;;;;1999.90;999.90;;;3.90;99.90;;;;;;5022741;28;20415;-84
2024/01/06 10:44:42;;;;;;;1999.90;999.90;;;3.90;99.90;;;;;;5024437;28;20047;-82
2024/01/06 10:47:09;;;;;;;1999.90;999.90;;;3.90;99.90;;;;;;5023931;28;20653;-82
2024/01/06 10:49:36;;;;;;;1999.90;999.90;;;3.90;99.90;;;;;;5024350;28;20117;-82
2024/01/06 10:52:04;;;;;;;1999.90;999.90;;;3.80;99.90;;;;;;5023015;28;20659;-81
2024/01/06 10:54:30;;;;;;;1999.90;999.90;;;3.80;99.90;;;;;;5023849;28;20624;-81
2024/01/06 10:56:57;;;;;;;1999.90;999.90;;;3.90;99.90;;;;;;5026638;28;20040;-80
2024/01/06 10:59:26;;;;;;;1999.90;999.90;;;3.90;99.90;;;;;;5023943;28;20698;-84
2024/01/06 11:01:53;;;;;;;1999.90;999.90;;;4.10;99.90;;;;;;5021942;28;20077;-80
2024/01/06 11:04:22;;;;;;;1999.90;999.90;;;4.30;99.90;;;;;;5026036;28;20057;-83
2024/01/06 11:06:48;;;;;;;1999.90;999.90;;;4.10;99.90;;;;;;5022824;28;20056;-79
2024/01/06 11:09:21;;;;;;;1999.90;999.90;;;3.90;99.90;;;;;;5021792;28;20351;-84
2024/01/06 11:11:48;;;;;;;1999.90;999.90;;;3.80;99.90;;;;;;5023539;28;20033;-83
2024/01/06 11:14:37;;;;;;;1999.90;999.90;;;4.00;99.90;;;;;;5025770;28;20026;-84
2024/01/06 11:17:03;;;;;;;1999.90;999.90;;;4.10;99.90;;;;;;5055072;28;20080;-83
2024/01/06 11:19:36;;;;;;;1999.90;999.90;;;4.20;99.90;;;;;;5027385;28;20029;-83
2024/01/06 11:22:39;;;;;;;1999.90;999.90;;;4.00;99.90;;;;;;5026345;28;20029;-83
2024/01/06 11:25:07;;;;;;;1999.90;999.90;;;4.20;99.90;;;;;;5022573;28;20033;-82
2024/01/06 11:27:36;;;;;;;1999.90;999.90;;;4.00;99.90;;;;;;5022967;28;20723;-85
2024/01/06 11:30:06;;;;;;;1999.90;999.90;;;4.00;99.90;;;;;;5023394;28;20511;-84
2024/01/06 11:32:36;;;;;;;1999.90;999.90;;;3.90;99.90;;;;;;5025169;28;20056;-84
2024/01/06 11:35:06;;;;;;;1999.90;999.90;;;4.10;99.90;;;;;;5028172;28;20025;-84
2024/01/06 11:37:52;;;;;;;1999.90;999.90;;;4.20;99.90;;;;;;5027137;28;20033;-83
2024/01/06 11:40:21;;;;;;;1999.90;999.90;;;4.30;99.90;;;;;;5024270;28;20787;-83
2024/01/06 11:42:48;;;;;;;1999.90;999.90;;;4.10;99.90;;;;;;5030327;28;20025;-80
2024/01/06 11:45:15;;;;;;;1999.90;999.90;;;4.20;99.90;;;;;;5024637;28;20041;-84
2024/01/06 11:47:45;;;;;;;1999.90;999.90;;;4.10;99.90;;;;;;5023904;28;20493;-81
2024/01/06 11:50:11;;;;;;;1999.90;999.90;;;4.30;99.90;;;;;;5025879;28;20041;-81
2024/01/06 11:52:36;;;;;;;1999.90;999.90;;;4.10;99.90;;;;;;5022823;28;20075;-80
2024/01/06 11:55:02;;;;;;;1999.90;999.90;;;4.20;99.90;;;;;;5026806;28;20033;-84
2024/01/06 11:57:29;;;;;;;1999.90;999.90;;;4.10;99.90;;;;;;5026337;28;20029;-84
2024/01/06 11:59:55;;;;;;;1999.90;999.90;;;4.40;99.90;;;;;;5025446;28;20064;-82
2024/01/06 12:02:24;;;;;;;1999.90;999.90;;;4.10;99.90;;;;;;5021571;28;20037;-82
2024/01/06 12:04:53;;;;;;;1999.90;999.90;;;3.90;99.90;;;;;;5020998;28;20806;-81